sensor_id;sensor_type;location;lat;lon;timestamp;P1;durP1;ratioP1;P2;durP2;ratioP2
5730;SDS011;2890;51.950;7.668;2022-12-29T08:33:18;3.53;;;1.10;;
5730;SDS011;2890;51.950;7.668;2022-12-29T08:35:44;2.50;;;1.30;;
5730;SDS011;2890;51.950;7.668;2022-12-29T08:38:10;5.43;;;1.60;;
5730;SDS011;2890;51.950;7.668;2022-12-29T08:40:40;2.93;;;1.10;;
5730;SDS011;2890;51.950;7.668;2022-12-29T08:43:26;6.00;;;1.60;;
5730;SDS011;2890;51.950;7.668;2022-12-29T08:49:28;2.80;;;1.30;;
5730;SDS011;2890;51.950;7.668;2022-12-29T08:51:55;3.57;;;1.57;;
5730;SDS011;2890;51.950;7.668;2022-12-29T08:54:21;2.20;;;1.30;;
5730;SDS011;2890;51.950;7.668;2022-12-29T08:56:48;6.13;;;1.60;;
5730;SDS011;2890;51.950;7.668;2022-12-29T08:59:14;7.87;;;1.50;;
5730;SDS011;2890;51.950;7.668;2022-12-29T09:01:46;5.20;;;1.40;;
5730;SDS011;2890;51.950;7.668;2022-12-29T09:04:37;5.30;;;1.60;;
5730;SDS011;2890;51.950;7.668;2022-12-29T09:07:43;6.73;;;1.50;;
5730;SDS011;2890;51.950;7.668;2022-12-29T09:10:09;3.87;;;1.50;;
5730;SDS011;2890;51.950;7.668;2022-12-29T09:12:35;5.60;;;1.50;;
5730;SDS011;2890;51.950;7.668;2022-12-29T09:15:02;6.97;;;1.70;;
5730;SDS011;2890;51.950;7.668;2022-12-29T09:17:29;4.10;;;1.63;;
5730;SDS011;2890;51.950;7.668;2022-12-29T09:20:13;2.27;;;1.23;;
5730;SDS011;2890;51.950;7.668;2022-12-29T09:22:42;8.73;;;2.40;;
5730;SDS011;2890;51.950;7.668;2022-12-29T09:25:09;2.80;;;1.63;;
5730;SDS011;2890;51.950;7.668;2022-12-29T09:27:36;2.77;;;1.57;;
5730;SDS011;2890;51.950;7.668;2022-12-29T09:30:03;4.40;;;1.30;;
5730;SDS011;2890;51.950;7.668;2022-12-29T09:32:30;6.23;;;2.00;;
5730;SDS011;2890;51.950;7.668;2022-12-29T09:34:57;5.10;;;1.63;;
5730;SDS011;2890;51.950;7.668;2022-12-29T09:37:25;6.00;;;1.30;;
5730;SDS011;2890;51.950;7.668;2022-12-29T09:39:51;6.33;;;1.30;;
5730;SDS011;2890;51.950;7.668;2022-12-29T09:42:19;6.53;;;1.80;;
5730;SDS011;2890;51.950;7.668;2022-12-29T09:44:52;8.87;;;2.10;;
5730;SDS011;2890;51.950;7.668;2022-12-29T09:47:22;10.07;;;2.77;;
5730;SDS011;2890;51.950;7.668;2022-12-29T09:49:52;5.70;;;1.90;;
5730;SDS011;2890;51.950;7.668;2022-12-29T09:52:20;7.30;;;1.87;;
5730;SDS011;2890;51.950;7.668;2022-12-29T09:54:52;4.47;;;1.63;;
5730;SDS011;2890;51.950;7.668;2022-12-29T09:57:23;3.60;;;1.70;;
5730;SDS011;2890;51.950;7.668;2022-12-29T09:59:52;4.00;;;1.70;;
5730;SDS011;2890;51.950;7.668;2022-12-29T10:02:32;5.67;;;1.70;;
5730;SDS011;2890;51.950;7.668;2022-12-29T10:05:03;5.43;;;1.53;;
5730;SDS011;2890;51.950;7.668;2022-12-29T10:07:38;4.13;;;1.63;;
5730;SDS011;2890;51.950;7.668;2022-12-29T10:10:17;7.10;;;2.03;;
5730;SDS011;2890;51.950;7.668;2022-12-29T10:12:53;5.33;;;1.60;;
5730;SDS011;2890;51.950;7.668;2022-12-29T10:15:29;7.03;;;1.93;;
5730;SDS011;2890;51.950;7.668;2022-12-29T10:18:03;5.20;;;1.97;;
5730;SDS011;2890;51.950;7.668;2022-12-29T10:20:42;8.60;;;2.10;;
5730;SDS011;2890;51.950;7.668;2022-12-29T10:23:20;4.43;;;1.73;;
5730;SDS011;2890;51.950;7.668;2022-12-29T10:25:53;6.10;;;1.83;;
5730;SDS011;2890;51.950;7.668;2022-12-29T10:28:21;5.30;;;1.90;;
5730;SDS011;2890;51.950;7.668;2022-12-29T10:30:48;6.17;;;1.97;;
5730;SDS011;2890;51.950;7.668;2022-12-29T10:33:17;8.03;;;1.93;;
5730;SDS011;2890;51.950;7.668;2022-12-29T10:35:45;5.87;;;2.33;;
5730;SDS011;2890;51.950;7.668;2022-12-29T10:38:15;4.73;;;1.50;;
5730;SDS011;2890;51.950;7.668;2022-12-29T10:40:48;9.97;;;2.07;;
5730;SDS011;2890;51.950;7.668;2022-12-29T10:43:22;6.50;;;1.70;;
5730;SDS011;2890;51.950;7.668;2022-12-29T10:45:51;6.47;;;1.60;;
5730;SDS011;2890;51.950;7.668;2022-12-29T10:48:19;4.03;;;1.40;;
5730;SDS011;2890;51.950;7.668;2022-12-29T10:50:47;6.10;;;1.67;;
5730;SDS011;2890;51.950;7.668;2022-12-29T10:53:15;10.90;;;1.87;;
5730;SDS011;2890;51.950;7.668;2022-12-29T10:55:45;5.73;;;1.73;;
5730;SDS011;2890;51.950;7.668;2022-12-29T10:58:14;5.77;;;1.90;;
5730;SDS011;2890;51.950;7.668;2022-12-29T11:00:41;5.00;;;1.77;;
5730;SDS011;2890;51.950;7.668;2022-12-29T11:03:22;4.87;;;2.10;;
5730;SDS011;2890;51.950;7.668;2022-12-29T11:06:07;6.40;;;1.97;;
5730;SDS011;2890;51.950;7.668;2022-12-29T11:08:38;4.27;;;1.53;;
5730;SDS011;2890;51.950;7.668;2022-12-29T11:11:07;6.60;;;1.83;;
5730;SDS011;2890;51.950;7.668;2022-12-29T11:13:46;3.77;;;1.83;;
5730;SDS011;2890;51.950;7.668;2022-12-29T11:16:13;5.13;;;1.87;;
5730;SDS011;2890;51.950;7.668;2022-12-29T11:18:40;4.33;;;1.50;;
5730;SDS011;2890;51.950;7.668;2022-12-29T11:21:23;5.23;;;1.60;;
5730;SDS011;2890;51.950;7.668;2022-12-29T11:23:55;6.00;;;1.87;;
5730;SDS011;2890;51.950;7.668;2022-12-29T11:26:23;5.17;;;1.80;;
5730;SDS011;2890;51.950;7.668;2022-12-29T11:29:05;7.33;;;1.90;;
5730;SDS011;2890;51.950;7.668;2022-12-29T11:31:43;3.23;;;1.30;;
5730;SDS011;2890;51.950;7.668;2022-12-29T11:34:16;3.90;;;1.33;;
5730;SDS011;2890;51.950;7.668;2022-12-29T11:36:43;4.80;;;1.40;;
5730;SDS011;2890;51.950;7.668;2022-12-29T11:39:17;6.83;;;1.90;;
5730;SDS011;2890;51.950;7.668;2022-12-29T11:41:52;5.47;;;1.70;;
5730;SDS011;2890;51.950;7.668;2022-12-29T11:44:21;4.07;;;1.90;;
5730;SDS011;2890;51.950;7.668;2022-12-29T11:46:48;6.23;;;1.37;;
5730;SDS011;2890;51.950;7.668;2022-12-29T11:49:18;5.30;;;1.90;;
5730;SDS011;2890;51.950;7.668;2022-12-29T11:51:47;2.17;;;1.37;;
5730;SDS011;2890;51.950;7.668;2022-12-29T11:54:16;6.30;;;2.13;;
5730;SDS011;2890;51.950;7.668;2022-12-29T11:56:45;5.77;;;1.57;;
5730;SDS011;2890;51.950;7.668;2022-12-29T12:05:10;6.50;;;1.63;;
5730;SDS011;2890;51.950;7.668;2022-12-29T12:07:40;3.70;;;1.90;;
5730;SDS011;2890;51.950;7.668;2022-12-29T12:10:11;6.73;;;2.10;;
5730;SDS011;2890;51.950;7.668;2022-12-29T12:12:44;2.70;;;1.50;;
5730;SDS011;2890;51.950;7.668;2022-12-29T12:15:16;3.53;;;1.30;;
5730;SDS011;2890;51.950;7.668;2022-12-29T12:17:47;6.43;;;1.90;;
5730;SDS011;2890;51.950;7.668;2022-12-29T12:20:17;3.27;;;1.57;;
5730;SDS011;2890;51.950;7.668;2022-12-29T12:22:49;4.67;;;1.83;;
5730;SDS011;2890;51.950;7.668;2022-12-29T12:25:20;5.47;;;1.40;;
5730;SDS011;2890;51.950;7.668;2022-12-29T12:27:48;5.13;;;2.23;;
5730;SDS011;2890;51.950;7.668;2022-12-29T12:30:20;4.33;;;1.50;;
5730;SDS011;2890;51.950;7.668;2022-12-29T12:32:48;6.50;;;1.40;;
5730;SDS011;2890;51.950;7.668;2022-12-29T12:35:21;4.33;;;1.60;;
5730;SDS011;2890;51.950;7.668;2022-12-29T12:37:57;4.07;;;1.30;;
5730;SDS011;2890;51.950;7.668;2022-12-29T12:40:34;5.17;;;1.80;;
5730;SDS011;2890;51.950;7.668;2022-12-29T12:43:23;4.07;;;1.57;;
5730;SDS011;2890;51.950;7.668;2022-12-29T12:46:03;7.20;;;1.67;;
5730;SDS011;2890;51.950;7.668;2022-12-29T12:48:44;6.13;;;1.87;;
5730;SDS011;2890;51.950;7.668;2022-12-29T12:51:19;4.03;;;1.53;;
5730;SDS011;2890;51.950;7.668;2022-12-29T12:53:56;6.93;;;1.97;;
5730;SDS011;2890;51.950;7.668;2022-12-29T12:56:35;3.40;;;1.50;;
5730;SDS011;2890;51.950;7.668;2022-12-29T12:59:10;5.43;;;2.30;;
5730;SDS011;2890;51.950;7.668;2022-12-29T13:01:49;4.07;;;1.70;;
5730;SDS011;2890;51.950;7.668;2022-12-29T13:04:32;4.80;;;1.63;;
5730;SDS011;2890;51.950;7.668;2022-12-29T13:07:15;8.83;;;2.20;;
5730;SDS011;2890;51.950;7.668;2022-12-29T13:09:48;3.63;;;1.50;;
5730;SDS011;2890;51.950;7.668;2022-12-29T13:12:27;6.73;;;1.63;;
5730;SDS011;2890;51.950;7.668;2022-12-29T13:15:01;5.27;;;2.10;;
5730;SDS011;2890;51.950;7.668;2022-12-29T13:17:38;7.77;;;1.83;;
5730;SDS011;2890;51.950;7.668;2022-12-29T13:20:12;4.63;;;1.60;;
5730;SDS011;2890;51.950;7.668;2022-12-29T13:22:47;4.97;;;1.60;;
5730;SDS011;2890;51.950;7.668;2022-12-29T13:25:24;6.47;;;1.90;;
5730;SDS011;2890;51.950;7.668;2022-12-29T13:27:55;5.80;;;2.03;;
5730;SDS011;2890;51.950;7.668;2022-12-29T13:30:26;4.00;;;1.50;;
5730;SDS011;2890;51.950;7.668;2022-12-29T13:32:59;7.33;;;1.70;;
5730;SDS011;2890;51.950;7.668;2022-12-29T13:35:37;4.33;;;1.67;;
5730;SDS011;2890;51.950;7.668;2022-12-29T13:38:12;3.00;;;1.60;;
5730;SDS011;2890;51.950;7.668;2022-12-29T13:40:41;4.93;;;1.70;;
5730;SDS011;2890;51.950;7.668;2022-12-29T13:43:11;4.30;;;1.43;;
5730;SDS011;2890;51.950;7.668;2022-12-29T13:45:38;3.93;;;2.07;;
5730;SDS011;2890;51.950;7.668;2022-12-29T13:48:09;5.07;;;1.67;;
5730;SDS011;2890;51.950;7.668;2022-12-29T13:50:41;2.73;;;1.23;;
5730;SDS011;2890;51.950;7.668;2022-12-29T13:53:11;6.30;;;1.70;;
5730;SDS011;2890;51.950;7.668;2022-12-29T13:55:45;5.13;;;1.80;;
5730;SDS011;2890;51.950;7.668;2022-12-29T13:58:18;6.43;;;2.23;;
5730;SDS011;2890;51.950;7.668;2022-12-29T14:00:52;4.77;;;1.80;;
5730;SDS011;2890;51.950;7.668;2022-12-29T14:03:41;7.60;;;2.10;;
5730;SDS011;2890;51.950;7.668;2022-12-29T14:06:19;8.27;;;2.40;;
5730;SDS011;2890;51.950;7.668;2022-12-29T14:08:48;11.43;;;2.27;;
5730;SDS011;2890;51.950;7.668;2022-12-29T14:11:15;10.90;;;2.67;;
5730;SDS011;2890;51.950;7.668;2022-12-29T14:13:43;6.73;;;2.67;;
5730;SDS011;2890;51.950;7.668;2022-12-29T14:16:21;6.50;;;2.10;;
5730;SDS011;2890;51.950;7.668;2022-12-29T14:18:53;9.50;;;1.90;;
5730;SDS011;2890;51.950;7.668;2022-12-29T14:21:22;6.17;;;2.00;;
5730;SDS011;2890;51.950;7.668;2022-12-29T14:23:52;7.27;;;1.90;;
5730;SDS011;2890;51.950;7.668;2022-12-29T14:26:32;9.30;;;2.57;;
5730;SDS011;2890;51.950;7.668;2022-12-29T14:29:16;13.13;;;2.20;;
5730;SDS011;2890;51.950;7.668;2022-12-29T14:31:57;4.57;;;1.70;;
5730;SDS011;2890;51.950;7.668;2022-12-29T14:34:29;8.33;;;2.17;;
5730;SDS011;2890;51.950;7.668;2022-12-29T14:36:57;6.70;;;1.83;;
5730;SDS011;2890;51.950;7.668;2022-12-29T14:39:32;6.67;;;2.67;;
5730;SDS011;2890;51.950;7.668;2022-12-29T14:42:01;7.40;;;2.17;;
5730;SDS011;2890;51.950;7.668;2022-12-29T14:44:31;8.73;;;1.90;;
5730;SDS011;2890;51.950;7.668;2022-12-29T14:46:58;6.50;;;2.40;;
5730;SDS011;2890;51.950;7.668;2022-12-29T14:49:27;4.60;;;1.60;;
5730;SDS011;2890;51.950;7.668;2022-12-29T14:52:04;5.67;;;2.13;;
5730;SDS011;2890;51.950;7.668;2022-12-29T14:54:46;7.80;;;2.53;;
5730;SDS011;2890;51.950;7.668;2022-12-29T15:00:03;5.13;;;1.87;;
5730;SDS011;2890;51.950;7.668;2022-12-29T15:02:33;6.17;;;2.30;;
5730;SDS011;2890;51.950;7.668;2022-12-29T15:05:10;4.30;;;2.13;;
5730;SDS011;2890;51.950;7.668;2022-12-29T15:07:49;5.63;;;2.20;;
5730;SDS011;2890;51.950;7.668;2022-12-29T15:10:16;8.30;;;2.10;;
5730;SDS011;2890;51.950;7.668;2022-12-29T15:12:45;6.20;;;1.60;;
5730;SDS011;2890;51.950;7.668;2022-12-29T15:15:17;10.47;;;2.27;;
5730;SDS011;2890;51.950;7.668;2022-12-29T15:17:46;6.60;;;1.80;;
5730;SDS011;2890;51.950;7.668;2022-12-29T15:20:17;7.70;;;1.60;;
5730;SDS011;2890;51.950;7.668;2022-12-29T15:22:48;4.57;;;1.57;;
5730;SDS011;2890;51.950;7.668;2022-12-29T15:25:16;4.07;;;1.70;;
5730;SDS011;2890;51.950;7.668;2022-12-29T15:27:46;4.10;;;1.63;;
5730;SDS011;2890;51.950;7.668;2022-12-29T15:30:15;4.97;;;1.50;;
5730;SDS011;2890;51.950;7.668;2022-12-29T15:32:43;8.47;;;2.23;;
5730;SDS011;2890;51.950;7.668;2022-12-29T15:35:22;4.10;;;1.40;;
5730;SDS011;2890;51.950;7.668;2022-12-29T15:37:50;8.13;;;1.73;;
5730;SDS011;2890;51.950;7.668;2022-12-29T15:40:21;10.43;;;2.70;;
5730;SDS011;2890;51.950;7.668;2022-12-29T15:42:52;5.73;;;1.60;;
5730;SDS011;2890;51.950;7.668;2022-12-29T15:45:30;5.87;;;2.00;;
5730;SDS011;2890;51.950;7.668;2022-12-29T15:47:58;10.77;;;2.27;;
5730;SDS011;2890;51.950;7.668;2022-12-29T15:50:27;6.53;;;1.83;;
5730;SDS011;2890;51.950;7.668;2022-12-29T15:52:54;4.10;;;1.73;;
5730;SDS011;2890;51.950;7.668;2022-12-29T15:55:24;6.07;;;1.80;;
5730;SDS011;2890;51.950;7.668;2022-12-29T15:57:55;6.27;;;2.10;;
5730;SDS011;2890;51.950;7.668;2022-12-29T16:00:23;9.90;;;2.57;;
5730;SDS011;2890;51.950;7.668;2022-12-29T16:02:51;6.60;;;2.20;;
5730;SDS011;2890;51.950;7.668;2022-12-29T16:05:18;5.13;;;1.80;;
5730;SDS011;2890;51.950;7.668;2022-12-29T16:07:52;4.37;;;2.13;;
5730;SDS011;2890;51.950;7.668;2022-12-29T16:10:22;3.90;;;1.53;;
5730;SDS011;2890;51.950;7.668;2022-12-29T16:12:54;6.43;;;1.50;;
5730;SDS011;2890;51.950;7.668;2022-12-29T16:15:20;5.87;;;1.67;;
5730;SDS011;2890;51.950;7.668;2022-12-29T16:17:47;3.97;;;1.40;;
5730;SDS011;2890;51.950;7.668;2022-12-29T16:20:17;4.90;;;1.77;;
5730;SDS011;2890;51.950;7.668;2022-12-29T16:22:46;4.50;;;1.43;;
5730;SDS011;2890;51.950;7.668;2022-12-29T16:25:16;2.40;;;1.57;;
5730;SDS011;2890;51.950;7.668;2022-12-29T16:27:47;5.37;;;1.53;;
5730;SDS011;2890;51.950;7.668;2022-12-29T16:30:17;3.47;;;1.20;;
5730;SDS011;2890;51.950;7.668;2022-12-29T16:32:47;3.83;;;1.37;;
5730;SDS011;2890;51.950;7.668;2022-12-29T16:35:17;6.63;;;1.90;;
5730;SDS011;2890;51.950;7.668;2022-12-29T16:37:44;5.57;;;1.97;;
5730;SDS011;2890;51.950;7.668;2022-12-29T16:40:26;4.47;;;1.90;;
5730;SDS011;2890;51.950;7.668;2022-12-29T16:42:56;5.00;;;1.70;;
5730;SDS011;2890;51.950;7.668;2022-12-29T16:45:43;4.30;;;1.80;;
5730;SDS011;2890;51.950;7.668;2022-12-29T16:48:49;8.37;;;2.37;;
5730;SDS011;2890;51.950;7.668;2022-12-29T16:51:17;6.40;;;2.10;;
5730;SDS011;2890;51.950;7.668;2022-12-29T16:53:48;9.57;;;2.60;;
5730;SDS011;2890;51.950;7.668;2022-12-29T16:56:18;6.60;;;2.50;;
5730;SDS011;2890;51.950;7.668;2022-12-29T16:58:46;3.27;;;2.17;;
5730;SDS011;2890;51.950;7.668;2022-12-29T17:01:13;4.90;;;2.43;;
5730;SDS011;2890;51.950;7.668;2022-12-29T17:03:45;6.97;;;3.07;;
5730;SDS011;2890;51.950;7.668;2022-12-29T17:06:14;8.67;;;3.10;;
5730;SDS011;2890;51.950;7.668;2022-12-29T17:08:41;8.80;;;3.20;;
5730;SDS011;2890;51.950;7.668;2022-12-29T17:11:14;4.20;;;2.30;;
5730;SDS011;2890;51.950;7.668;2022-12-29T17:17:02;12.10;;;4.00;;
5730;SDS011;2890;51.950;7.668;2022-12-29T17:19:30;6.87;;;2.80;;
5730;SDS011;2890;51.950;7.668;2022-12-29T17:21:58;10.27;;;3.23;;
5730;SDS011;2890;51.950;7.668;2022-12-29T17:24:25;11.17;;;2.83;;
5730;SDS011;2890;51.950;7.668;2022-12-29T17:26:53;6.43;;;2.17;;
5730;SDS011;2890;51.950;7.668;2022-12-29T17:29:24;7.53;;;3.07;;
5730;SDS011;2890;51.950;7.668;2022-12-29T17:31:55;9.47;;;3.20;;
5730;SDS011;2890;51.950;7.668;2022-12-29T17:34:21;10.40;;;3.43;;
5730;SDS011;2890;51.950;7.668;2022-12-29T17:36:48;8.20;;;2.70;;
5730;SDS011;2890;51.950;7.668;2022-12-29T17:39:15;5.67;;;2.50;;
5730;SDS011;2890;51.950;7.668;2022-12-29T17:41:41;5.90;;;2.70;;
5730;SDS011;2890;51.950;7.668;2022-12-29T17:44:09;6.27;;;2.20;;
5730;SDS011;2890;51.950;7.668;2022-12-29T17:46:41;8.17;;;2.47;;
5730;SDS011;2890;51.950;7.668;2022-12-29T17:49:09;6.77;;;1.90;;
5730;SDS011;2890;51.950;7.668;2022-12-29T17:51:36;9.63;;;1.90;;
5730;SDS011;2890;51.950;7.668;2022-12-29T17:54:02;2.80;;;1.63;;
5730;SDS011;2890;51.950;7.668;2022-12-29T17:56:29;6.83;;;2.57;;
5730;SDS011;2890;51.950;7.668;2022-12-29T17:58:55;4.27;;;1.50;;
5730;SDS011;2890;51.950;7.668;2022-12-29T18:01:23;7.43;;;1.97;;
5730;SDS011;2890;51.950;7.668;2022-12-29T18:03:50;6.43;;;2.00;;
5730;SDS011;2890;51.950;7.668;2022-12-29T18:06:17;3.17;;;1.83;;
5730;SDS011;2890;51.950;7.668;2022-12-29T18:08:43;3.60;;;1.97;;
5730;SDS011;2890;51.950;7.668;2022-12-29T18:11:15;4.80;;;2.33;;
5730;SDS011;2890;51.950;7.668;2022-12-29T18:13:47;5.80;;;2.00;;
5730;SDS011;2890;51.950;7.668;2022-12-29T18:16:13;4.73;;;1.83;;
5730;SDS011;2890;51.950;7.668;2022-12-29T18:18:41;7.00;;;2.67;;
5730;SDS011;2890;51.950;7.668;2022-12-29T18:21:12;4.77;;;2.20;;
5730;SDS011;2890;51.950;7.668;2022-12-29T18:23:39;4.77;;;1.80;;
5730;SDS011;2890;51.950;7.668;2022-12-29T18:26:06;4.83;;;1.57;;
5730;SDS011;2890;51.950;7.668;2022-12-29T18:28:39;5.77;;;1.93;;
5730;SDS011;2890;51.950;7.668;2022-12-29T18:31:08;4.37;;;1.40;;
5730;SDS011;2890;51.950;7.668;2022-12-29T18:33:42;3.33;;;1.37;;
5730;SDS011;2890;51.950;7.668;2022-12-29T18:36:09;3.33;;;1.40;;
5730;SDS011;2890;51.950;7.668;2022-12-29T18:38:36;2.67;;;1.47;;
5730;SDS011;2890;51.950;7.668;2022-12-29T18:41:03;4.57;;;1.80;;
5730;SDS011;2890;51.950;7.668;2022-12-29T18:43:29;3.17;;;1.47;;
5730;SDS011;2890;51.950;7.668;2022-12-29T18:45:56;3.47;;;1.30;;
5730;SDS011;2890;51.950;7.668;2022-12-29T18:48:23;4.17;;;1.57;;
5730;SDS011;2890;51.950;7.668;2022-12-29T18:50:50;2.07;;;1.43;;
5730;SDS011;2890;51.950;7.668;2022-12-29T18:53:17;6.10;;;1.60;;
5730;SDS011;2890;51.950;7.668;2022-12-29T18:55:44;5.30;;;1.83;;
5730;SDS011;2890;51.950;7.668;2022-12-29T18:58:11;5.90;;;1.60;;
5730;SDS011;2890;51.950;7.668;2022-12-29T19:00:38;3.93;;;1.57;;
5730;SDS011;2890;51.950;7.668;2022-12-29T19:03:04;4.73;;;2.13;;
5730;SDS011;2890;51.950;7.668;2022-12-29T19:05:34;4.93;;;1.90;;
5730;SDS011;2890;51.950;7.668;2022-12-29T19:08:03;7.70;;;2.40;;
5730;SDS011;2890;51.950;7.668;2022-12-29T19:10:33;6.03;;;2.20;;
5730;SDS011;2890;51.950;7.668;2022-12-29T19:13:00;5.70;;;2.13;;
5730;SDS011;2890;51.950;7.668;2022-12-29T19:15:27;9.23;;;1.80;;
5730;SDS011;2890;51.950;7.668;2022-12-29T19:17:55;6.57;;;1.83;;
5730;SDS011;2890;51.950;7.668;2022-12-29T19:20:25;8.43;;;2.60;;
5730;SDS011;2890;51.950;7.668;2022-12-29T19:22:53;3.07;;;1.87;;
5730;SDS011;2890;51.950;7.668;2022-12-29T19:25:21;9.17;;;1.90;;
5730;SDS011;2890;51.950;7.668;2022-12-29T19:27:47;7.63;;;2.00;;
5730;SDS011;2890;51.950;7.668;2022-12-29T19:30:14;3.67;;;1.80;;
5730;SDS011;2890;51.950;7.668;2022-12-29T19:32:41;11.83;;;2.27;;
5730;SDS011;2890;51.950;7.668;2022-12-29T19:35:08;5.03;;;1.53;;
5730;SDS011;2890;51.950;7.668;2022-12-29T19:37:35;10.80;;;2.90;;
5730;SDS011;2890;51.950;7.668;2022-12-29T19:40:04;11.07;;;3.03;;
5730;SDS011;2890;51.950;7.668;2022-12-29T19:42:35;6.53;;;2.37;;
5730;SDS011;2890;51.950;7.668;2022-12-29T19:45:02;10.67;;;2.80;;
5730;SDS011;2890;51.950;7.668;2022-12-29T19:47:29;7.33;;;2.47;;
5730;SDS011;2890;51.950;7.668;2022-12-29T19:49:56;10.33;;;3.00;;
5730;SDS011;2890;51.950;7.668;2022-12-29T19:52:23;7.37;;;2.63;;
5730;SDS011;2890;51.950;7.668;2022-12-29T19:54:49;7.87;;;2.80;;
5730;SDS011;2890;51.950;7.668;2022-12-29T19:57:16;9.67;;;2.67;;
5730;SDS011;2890;51.950;7.668;2022-12-29T19:59:44;6.63;;;2.23;;
5730;SDS011;2890;51.950;7.668;2022-12-29T20:02:12;10.53;;;2.10;;
5730;SDS011;2890;51.950;7.668;2022-12-29T20:04:43;8.03;;;2.53;;
5730;SDS011;2890;51.950;7.668;2022-12-29T20:07:10;7.20;;;3.10;;
5730;SDS011;2890;51.950;7.668;2022-12-29T20:09:36;7.90;;;2.70;;
5730;SDS011;2890;51.950;7.668;2022-12-29T20:12:03;7.77;;;2.57;;
5730;SDS011;2890;51.950;7.668;2022-12-29T20:14:29;9.10;;;3.03;;
5730;SDS011;2890;51.950;7.668;2022-12-29T20:16:57;9.10;;;2.90;;
5730;SDS011;2890;51.950;7.668;2022-12-29T20:19:24;12.93;;;3.03;;
5730;SDS011;2890;51.950;7.668;2022-12-29T20:21:50;8.17;;;2.83;;
5730;SDS011;2890;51.950;7.668;2022-12-29T20:24:17;12.27;;;3.20;;
5730;SDS011;2890;51.950;7.668;2022-12-29T20:26:43;9.00;;;2.80;;
5730;SDS011;2890;51.950;7.668;2022-12-29T20:29:10;8.20;;;2.60;;
5730;SDS011;2890;51.950;7.668;2022-12-29T20:31:39;9.97;;;3.43;;
5730;SDS011;2890;51.950;7.668;2022-12-29T20:34:07;10.20;;;2.87;;
5730;SDS011;2890;51.950;7.668;2022-12-29T20:36:34;11.57;;;2.80;;
5730;SDS011;2890;51.950;7.668;2022-12-29T20:39:06;12.87;;;2.73;;
5730;SDS011;2890;51.950;7.668;2022-12-29T20:41:33;14.40;;;3.20;;
5730;SDS011;2890;51.950;7.668;2022-12-29T20:44:00;14.97;;;3.23;;
5730;SDS011;2890;51.950;7.668;2022-12-29T20:46:29;13.77;;;2.93;;
5730;SDS011;2890;51.950;7.668;2022-12-29T20:48:56;12.47;;;2.90;;
5730;SDS011;2890;51.950;7.668;2022-12-29T20:51:25;10.17;;;3.07;;
5730;SDS011;2890;51.950;7.668;2022-12-29T20:53:51;7.63;;;2.80;;
5730;SDS011;2890;51.950;7.668;2022-12-29T20:56:18;12.87;;;3.77;;
5730;SDS011;2890;51.950;7.668;2022-12-29T20:58:46;11.97;;;3.33;;
5730;SDS011;2890;51.950;7.668;2022-12-29T21:01:14;11.97;;;3.33;;
5730;SDS011;2890;51.950;7.668;2022-12-29T21:03:42;14.93;;;3.10;;
5730;SDS011;2890;51.950;7.668;2022-12-29T21:06:08;10.67;;;3.07;;
5730;SDS011;2890;51.950;7.668;2022-12-29T21:08:38;8.63;;;3.20;;
5730;SDS011;2890;51.950;7.668;2022-12-29T21:11:05;7.97;;;3.03;;
5730;SDS011;2890;51.950;7.668;2022-12-29T21:13:31;16.50;;;3.17;;
5730;SDS011;2890;51.950;7.668;2022-12-29T21:15:59;11.93;;;3.27;;
5730;SDS011;2890;51.950;7.668;2022-12-29T21:18:27;18.67;;;4.30;;
5730;SDS011;2890;51.950;7.668;2022-12-29T21:20:54;12.30;;;3.17;;
5730;SDS011;2890;51.950;7.668;2022-12-29T21:23:21;8.80;;;2.87;;
5730;SDS011;2890;51.950;7.668;2022-12-29T21:25:49;9.13;;;2.90;;
5730;SDS011;2890;51.950;7.668;2022-12-29T21:28:17;10.70;;;3.07;;
5730;SDS011;2890;51.950;7.668;2022-12-29T21:30:43;10.47;;;3.07;;
5730;SDS011;2890;51.950;7.668;2022-12-29T21:33:10;15.27;;;3.87;;
5730;SDS011;2890;51.950;7.668;2022-12-29T21:35:36;12.97;;;3.30;;
5730;SDS011;2890;51.950;7.668;2022-12-29T21:38:03;14.17;;;3.33;;
5730;SDS011;2890;51.950;7.668;2022-12-29T21:40:30;11.70;;;3.13;;
5730;SDS011;2890;51.950;7.668;2022-12-29T21:42:58;15.57;;;3.53;;
5730;SDS011;2890;51.950;7.668;2022-12-29T21:45:24;11.10;;;3.20;;
5730;SDS011;2890;51.950;7.668;2022-12-29T21:47:49;12.00;;;3.23;;
5730;SDS011;2890;51.950;7.668;2022-12-29T21:50:35;11.17;;;2.60;;
5730;SDS011;2890;51.950;7.668;2022-12-29T21:53:23;14.43;;;3.27;;
5730;SDS011;2890;51.950;7.668;2022-12-29T21:56:01;11.80;;;2.80;;
5730;SDS011;2890;51.950;7.668;2022-12-29T21:58:29;11.67;;;2.80;;
5730;SDS011;2890;51.950;7.668;2022-12-29T22:01:14;10.60;;;2.77;;
5730;SDS011;2890;51.950;7.668;2022-12-29T22:03:58;9.83;;;3.10;;
5730;SDS011;2890;51.950;7.668;2022-12-29T22:06:42;12.47;;;3.57;;
5730;SDS011;2890;51.950;7.668;2022-12-29T22:09:26;15.80;;;3.53;;
5730;SDS011;2890;51.950;7.668;2022-12-29T22:12:10;17.80;;;4.07;;
5730;SDS011;2890;51.950;7.668;2022-12-29T22:14:56;7.77;;;3.00;;
5730;SDS011;2890;51.950;7.668;2022-12-29T22:17:22;10.10;;;2.73;;
5730;SDS011;2890;51.950;7.668;2022-12-29T22:19:49;12.43;;;3.03;;
5730;SDS011;2890;51.950;7.668;2022-12-29T22:22:15;11.30;;;2.63;;
5730;SDS011;2890;51.950;7.668;2022-12-29T22:24:42;7.83;;;2.90;;
5730;SDS011;2890;51.950;7.668;2022-12-29T22:27:08;13.50;;;3.53;;
5730;SDS011;2890;51.950;7.668;2022-12-29T22:29:35;9.73;;;2.60;;
5730;SDS011;2890;51.950;7.668;2022-12-29T22:32:02;18.27;;;3.27;;
5730;SDS011;2890;51.950;7.668;2022-12-29T22:34:29;13.43;;;3.77;;
5730;SDS011;2890;51.950;7.668;2022-12-29T22:36:55;13.67;;;3.07;;
5730;SDS011;2890;51.950;7.668;2022-12-29T22:39:22;10.40;;;3.20;;
5730;SDS011;2890;51.950;7.668;2022-12-29T22:41:49;8.13;;;2.63;;
5730;SDS011;2890;51.950;7.668;2022-12-29T22:44:15;7.63;;;2.73;;
5730;SDS011;2890;51.950;7.668;2022-12-29T22:46:42;14.87;;;2.90;;
5730;SDS011;2890;51.950;7.668;2022-12-29T22:49:09;11.30;;;2.60;;
5730;SDS011;2890;51.950;7.668;2022-12-29T22:51:36;12.57;;;3.20;;
5730;SDS011;2890;51.950;7.668;2022-12-29T22:54:03;16.97;;;2.77;;
5730;SDS011;2890;51.950;7.668;2022-12-29T22:56:29;11.97;;;2.73;;
5730;SDS011;2890;51.950;7.668;2022-12-29T22:58:56;10.03;;;2.87;;
5730;SDS011;2890;51.950;7.668;2022-12-29T23:01:22;9.50;;;2.60;;
5730;SDS011;2890;51.950;7.668;2022-12-29T23:03:49;8.57;;;2.17;;
5730;SDS011;2890;51.950;7.668;2022-12-29T23:06:16;11.40;;;3.03;;
5730;SDS011;2890;51.950;7.668;2022-12-29T23:08:44;9.47;;;2.73;;
5730;SDS011;2890;51.950;7.668;2022-12-29T23:11:11;6.40;;;2.73;;
5730;SDS011;2890;51.950;7.668;2022-12-29T23:13:38;14.73;;;3.07;;
5730;SDS011;2890;51.950;7.668;2022-12-29T23:16:08;7.83;;;2.57;;
5730;SDS011;2890;51.950;7.668;2022-12-29T23:18:35;8.70;;;2.83;;
5730;SDS011;2890;51.950;7.668;2022-12-29T23:21:04;13.07;;;3.10;;
5730;SDS011;2890;51.950;7.668;2022-12-29T23:23:36;11.30;;;2.90;;
5730;SDS011;2890;51.950;7.668;2022-12-29T23:26:22;7.70;;;2.90;;
5730;SDS011;2890;51.950;7.668;2022-12-29T23:28:51;9.70;;;2.30;;
5730;SDS011;2890;51.950;7.668;2022-12-29T23:31:18;9.57;;;2.83;;
5730;SDS011;2890;51.950;7.668;2022-12-29T23:33:45;15.57;;;3.93;;
5730;SDS011;2890;51.950;7.668;2022-12-29T23:36:12;10.20;;;2.43;;
5730;SDS011;2890;51.950;7.668;2022-12-29T23:38:42;9.97;;;2.67;;
5730;SDS011;2890;51.950;7.668;2022-12-29T23:41:09;24.43;;;2.97;;
5730;SDS011;2890;51.950;7.668;2022-12-29T23:43:36;10.20;;;2.90;;
5730;SDS011;2890;51.950;7.668;2022-12-29T23:46:06;10.30;;;2.90;;
5730;SDS011;2890;51.950;7.668;2022-12-29T23:48:33;9.77;;;3.00;;
5730;SDS011;2890;51.950;7.668;2022-12-29T23:50:59;15.87;;;2.90;;
5730;SDS011;2890;51.950;7.668;2022-12-29T23:53:26;14.60;;;3.50;;
5730;SDS011;2890;51.950;7.668;2022-12-29T23:55:54;14.97;;;3.40;;
5730;SDS011;2890;51.950;7.668;2022-12-29T23:58:21;13.43;;;3.67;;
